Time;durP1;ratioP1;P1;durP2;ratioP2;P2;SDS_P1;SDS_P2;PMS_P1;PMS_P2;Temp;Humidity;BMP_temperature;BMP_pressure;BME280_temperature;BME280_humidity;BME280_pressure;Samples;Min_cycle;Max_cycle;Signal;HPM_P1;HPM_P2
2023/06/08 04:07:00;;;;;;;26.08;21.75;;;;;;;19.31;100.00;100435.69;5606012;31;84611;-56
2023/06/08 04:10:04;;;;;;;25.48;21.70;;;;;;;19.31;100.00;100435.69;5603700;31;33333;-57
2023/06/08 04:13:07;;;;;;;23.55;20.10;;;;;;;18.79;100.00;100439.72;5603439;31;34318;-57
2023/06/08 04:16:11;;;;;;;22.37;19.25;;;;;;;18.89;100.00;100433.87;5602615;31;34205;-57
2023/06/08 04:19:14;;;;;;;20.77;18.55;;;;;;;18.97;100.00;100434.91;5603646;31;33159;-57
2023/06/08 04:22:16;;;;;;;21.35;19.15;;;;;;;18.95;100.00;100437.19;5601824;31;33602;-57
2023/06/08 04:25:24;;;;;;;21.80;19.50;;;;;;;18.94;100.00;100433.66;5597131;31;33727;-58
2023/06/08 04:28:28;;;;;;;22.58;19.17;;;;;;;19.02;100.00;100440.13;5599797;31;32929;-57
2023/06/08 04:31:30;;;;;;;23.90;19.08;;;;;;;19.10;100.00;100446.59;5593829;31;34483;-57
2023/06/08 04:34:34;;;;;;;20.23;17.98;;;;;;;19.14;100.00;100439.38;5591849;31;33247;-57
2023/06/08 04:37:36;;;;;;;21.98;18.87;;;;;;;19.18;100.00;100443.03;5583683;31;34216;-57
2023/06/08 04:40:41;;;;;;;22.60;19.05;;;;;;;19.20;100.00;100440.75;5583475;31;33608;-57
2023/06/08 04:43:44;;;;;;;24.27;19.10;;;;;;;19.21;100.00;100443.13;5595589;31;33469;-57
2023/06/08 04:46:47;;;;;;;19.67;17.55;;;;;;;19.29;100.00;100437.94;5599012;31;34335;-57
2023/06/08 04:49:51;;;;;;;22.48;19.08;;;;;;;19.29;100.00;100443.38;5585347;31;33563;-58
2023/06/08 04:52:55;;;;;;;20.85;18.10;;;;;;;19.30;100.00;100451.19;5583913;31;34496;-57
2023/06/08 04:55:58;;;;;;;20.67;18.48;;;;;;;19.34;100.00;100446.69;5589214;31;34479;-58
2023/06/08 04:59:01;;;;;;;24.08;19.40;;;;;;;19.29;100.00;100451.53;5603091;31;34392;-57
2023/06/08 05:02:03;;;;;;;25.40;19.08;;;;;;;19.37;100.00;100454.16;5589308;31;33413;-57
2023/06/08 05:05:07;;;;;;;18.90;16.90;;;;;;;19.35;100.00;100442.81;5583464;31;33639;-57
2023/06/08 05:08:09;;;;;;;21.83;19.58;;;;;;;19.40;100.00;100453.47;5586487;31;33589;-57
2023/06/08 05:11:13;;;;;;;24.05;17.73;;;;;;;19.36;100.00;100457.19;5563400;32;33537;-57
2023/06/08 05:14:15;;;;;;;20.35;18.20;;;;;;;19.35;100.00;100453.69;5563591;32;34427;-57
2023/06/08 05:17:17;;;;;;;22.30;18.95;;;;;;;19.40;100.00;100461.63;5582868;31;34330;-58
2023/06/08 05:20:23;;;;;;;20.35;18.33;;;;;;;19.35;100.00;100456.41;5589196;31;34266;-57
2023/06/08 05:23:25;;;;;;;22.20;19.80;;;;;;;19.38;100.00;100457.66;5589467;31;33728;-57
2023/06/08 05:26:27;;;;;;;20.67;17.30;;;;;;;19.41;100.00;100463.22;5589290;31;34284;-57
2023/06/08 05:29:30;;;;;;;20.33;18.23;;;;;;;19.41;100.00;100460.50;5589349;31;34497;-57
2023/06/08 05:32:32;;;;;;;21.55;17.95;;;;;;;19.41;100.00;100463.22;5582023;31;34288;-57
2023/06/08 05:35:35;;;;;;;19.15;17.00;;;;;;;19.57;100.00;100460.63;5568823;32;33601;-57
2023/06/08 05:38:37;;;;;;;21.52;18.98;;;;;;;19.56;100.00;100452.81;5568548;32;33562;-58
2023/06/08 05:41:40;;;;;;;20.70;18.50;;;;;;;19.58;100.00;100456.78;5569232;32;33693;-57
2023/06/08 05:44:42;;;;;;;22.58;20.05;;;;;;;19.57;100.00;100454.37;5568493;32;33276;-57
2023/06/08 05:47:44;;;;;;;25.48;19.95;;;;;;;19.63;100.00;100451.13;5568533;31;33672;-57
2023/06/08 05:50:47;;;;;;;21.73;19.42;;;;;;;19.61;100.00;100455.31;5568636;32;34060;-57
2023/06/08 05:53:49;;;;;;;21.65;18.95;;;;;;;19.67;100.00;100457.50;5569014;32;34270;-57
2023/06/08 05:56:51;;;;;;;23.25;20.77;;;;;;;19.63;100.00;100462.00;5568521;32;33697;-57
2023/06/08 05:59:54;;;;;;;21.52;19.23;;;;;;;19.67;100.00;100459.44;5568972;31;33255;-57
2023/06/08 06:02:56;;;;;;;20.23;18.12;;;;;;;19.61;100.00;100461.53;5575898;31;33984;-57
2023/06/08 06:06:01;;;;;;;20.10;17.87;;;;;;;19.61;100.00;100461.53;5568849;32;33623;-57
2023/06/08 06:09:04;;;;;;;21.05;18.87;;;;;;;19.73;100.00;100462.69;5568647;32;34059;-57
2023/06/08 06:12:10;;;;;;;25.40;18.02;;;;;;;19.58;100.00;100459.50;5565667;32;33563;-57
2023/06/08 06:15:12;;;;;;;20.45;17.45;;;;;;;19.59;100.00;100458.34;5559316;32;33699;-57
2023/06/08 06:18:14;;;;;;;20.02;17.35;;;;;;;19.65;100.00;100451.59;5556396;32;33777;-57
2023/06/08 06:21:17;;;;;;;21.08;18.75;;;;;;;19.72;100.00;100461.91;5555715;32;33014;-58
2023/06/08 06:24:19;;;;;;;20.65;18.52;;;;;;;19.73;100.00;100460.78;5560217;31;34273;-56
2023/06/08 06:27:22;;;;;;;22.52;20.10;;;;;;;19.69;100.00;100459.88;5560315;32;33667;-57
2023/06/08 06:30:26;;;;;;;22.95;19.83;;;;;;;19.64;100.00;100460.09;5560957;31;34354;-58
2023/06/08 06:33:29;;;;;;;25.05;20.98;;;;;;;19.69;100.00;100459.88;5568489;32;34769;-57
2023/06/08 06:36:32;;;;;;;22.23;19.95;;;;;;;19.71;100.00;100452.97;5568730;32;33156;-57
2023/06/08 06:39:35;;;;;;;23.00;20.52;;;;;;;19.74;100.00;100456.94;5568465;31;33327;-56
2023/06/08 06:42:39;;;;;;;24.63;20.42;;;;;;;19.71;100.00;100463.84;5584406;31;33766;-57
2023/06/08 06:45:44;;;;;;;21.92;19.62;;;;;;;19.77;100.00;100456.25;5567303;32;33981;-57
2023/06/08 06:48:47;;;;;;;24.45;21.20;;;;;;;19.78;100.00;100454.31;5568174;32;34184;-57
2023/06/08 06:51:50;;;;;;;23.60;20.45;;;;;;;19.76;100.00;100467.47;5568775;32;33693;-57
2023/06/08 06:54:53;;;;;;;24.23;20.37;;;;;;;19.76;100.00;100459.31;5568428;32;33616;-57
2023/06/08 06:57:55;;;;;;;23.15;19.87;;;;;;;19.77;100.00;100467.13;5568333;32;34396;-57
2023/06/08 07:00:58;;;;;;;23.33;20.52;;;;;;;19.84;100.00;100463.84;5568734;32;33661;-56
2023/06/08 07:04:05;;;;;;;23.83;20.25;;;;;;;19.83;100.00;100460.31;5567888;32;33912;-56
2023/06/08 07:07:07;;;;;;;23.23;20.70;;;;;;;19.76;100.00;100462.81;5568694;32;33694;-57
2023/06/08 07:10:10;;;;;;;22.37;20.27;;;;;;;19.77;100.00;100458.97;5554858;32;34336;-56
2023/06/08 07:13:13;;;;;;;23.35;18.98;;;;;;;19.79;100.00;100459.41;5549303;32;33800;-57
2023/06/08 07:16:15;;;;;;;23.58;20.60;;;;;;;19.83;100.00;100459.53;5554267;32;33590;-57
2023/06/08 07:19:18;;;;;;;22.13;19.58;;;;;;;19.95;100.00;100460.31;5548989;32;34353;-57
2023/06/08 07:22:20;;;;;;;23.08;20.65;;;;;;;19.96;100.00;100452.94;5551874;32;33677;-57
2023/06/08 07:25:43;;;;;;;23.38;20.60;;;;;;;20.00;100.00;100455.78;5558392;32;33690;-57
2023/06/08 07:29:07;;;;;;;22.52;20.23;;;;;;;20.00;100.00;100464.75;5555953;32;33812;-57
2023/06/08 07:32:10;;;;;;;25.48;19.08;;;;;;;20.08;100.00;100452.94;5558212;31;33567;-57
2023/06/08 07:35:13;;;;;;;22.83;18.58;;;;;;;20.08;100.00;100461.09;5556300;32;33696;-57
2023/06/08 07:38:16;;;;;;;24.60;17.58;;;;;;;20.10;100.00;100464.28;5548812;32;33583;-57
2023/06/08 07:41:18;;;;;;;22.92;19.27;;;;;;;20.14;100.00;100464.41;5548231;32;33557;-57
2023/06/08 07:44:21;;;;;;;21.70;18.35;;;;;;;20.17;100.00;100459.06;5575375;31;33923;-57
2023/06/08 07:47:23;;;;;;;21.10;18.98;;;;;;;20.22;100.00;100455.28;5567003;32;34309;-57
2023/06/08 07:50:26;;;;;;;21.40;18.33;;;;;;;20.27;100.00;100457.78;5567759;32;34398;-56
2023/06/08 07:53:38;;;;;;;22.05;19.75;;;;;;;20.41;100.00;100451.97;5559531;31;33553;-57
2023/06/08 07:56:40;;;;;;;20.15;17.77;;;;;;;20.40;100.00;100453.13;5552495;32;33529;-57
2023/06/08 07:59:42;;;;;;;20.27;17.77;;;;;;;20.43;100.00;100457.87;5555866;32;33733;-57
2023/06/08 08:02:45;;;;;;;20.10;18.00;;;;;;;20.44;100.00;100456.72;5552001;31;33582;-57
2023/06/08 08:05:50;;;;;;;21.92;19.60;;;;;;;20.48;100.00;100460.34;5561141;31;34309;-57
2023/06/08 08:08:53;;;;;;;23.55;20.08;;;;;;;20.41;100.00;100466.38;5564475;32;33333;-56
2023/06/08 08:11:55;;;;;;;19.17;17.05;;;;;;;20.44;100.00;100456.72;5566469;31;33594;-56
2023/06/08 08:14:57;;;;;;;23.00;18.87;;;;;;;20.42;100.00;100454.34;5566872;32;33199;-59
2023/06/08 08:18:01;;;;;;;20.77;18.15;;;;;;;20.42;100.00;100453.53;5567538;31;33436;-60
2023/06/08 08:21:03;;;;;;;21.70;19.40;;;;;;;20.42;100.00;100448.88;5566747;32;34309;-59
2023/06/08 08:24:06;;;;;;;20.10;17.95;;;;;;;20.58;100.00;100453.66;5565807;32;33713;-59
2023/06/08 08:27:10;;;;;;;21.58;19.27;;;;;;;20.67;99.50;100451.56;5555321;32;33087;-59
2023/06/08 08:30:13;;;;;;;24.55;19.23;;;;;;;20.74;100.00;100448.25;5561652;31;33588;-59
2023/06/08 08:33:15;;;;;;;21.90;19.65;;;;;;;20.74;100.00;100445.53;5565326;31;33574;-59
2023/06/08 08:36:19;;;;;;;21.95;18.23;;;;;;;20.74;100.00;100451.78;5579940;31;33540;-60
2023/06/08 08:39:23;;;;;;;21.90;19.60;;;;;;;20.74;100.00;100438.16;5566890;32;34570;-59
2023/06/08 08:42:30;;;;;;;25.95;18.85;;;;;;;20.75;98.97;100441.66;5552104;32;32924;-59
2023/06/08 08:45:34;;;;;;;;;;;;;;;20.80;100.00;100455.84;5566473;31;33189;-59
2023/06/08 08:52:40;;;;;;;21.52;19.02;;;;;;;20.91;100.00;100449.88;5526562;27;20119;-57
2023/06/08 08:55:48;;;;;;;19.58;17.45;;;;;;;20.97;99.86;100443.03;5365381;33;34231;-55
2023/06/08 08:58:51;;;;;;;17.85;15.95;;;;;;;21.08;97.60;100444.91;5366637;33;33709;-54
2023/06/08 09:01:54;;;;;;;18.83;15.88;;;;;;;21.11;98.85;100452.38;5379366;33;34186;-55
2023/06/08 09:04:57;;;;;;;17.12;15.32;;;;;;;21.18;97.76;100451.00;5362390;33;33366;-55
2023/06/08 09:07:59;;;;;;;17.58;15.73;;;;;;;21.18;94.58;100446.31;5374894;33;33293;-55
2023/06/08 09:11:04;;;;;;;19.00;16.60;;;;;;;21.22;98.27;100444.47;5379337;33;33686;-54
2023/06/08 09:14:09;;;;;;;21.83;17.45;;;;;;;21.23;98.96;100440.63;5372623;33;33768;-55
2023/06/08 09:17:37;;;;;;;17.55;15.85;;;;;;;21.21;91.97;100437.44;5369346;33;33393;-56
2023/06/08 09:20:40;;;;;;;19.95;15.52;;;;;;;21.23;94.58;100428.94;5377267;33;33750;-55
2023/06/08 09:23:42;;;;;;;20.05;16.58;;;;;;;21.34;97.83;100419.91;5365906;33;34070;-55
2023/06/08 09:26:49;;;;;;;18.83;16.77;;;;;;;21.48;96.02;100424.13;5374582;33;34960;-56
2023/06/08 09:29:52;;;;;;;19.73;17.58;;;;;;;21.57;92.74;100422.00;5371545;33;33911;-55
2023/06/08 09:32:56;;;;;;;19.70;16.92;;;;;;;21.62;92.82;100423.66;5376764;33;33604;-55
2023/06/08 09:35:58;;;;;;;22.27;17.87;;;;;;;21.48;91.62;100419.44;5378818;33;34249;-56
2023/06/08 09:39:03;;;;;;;21.23;18.62;;;;;;;21.61;93.70;100413.91;5377841;33;34571;-55
2023/06/08 09:42:06;;;;;;;21.17;18.70;;;;;;;21.69;91.62;100402.00;5379422;33;33793;-55
2023/06/08 09:45:12;;;;;;;19.98;16.40;;;;;;;21.79;92.70;100406.94;5373791;33;32349;-55
2023/06/08 09:48:14;;;;;;;19.83;15.68;;;;;;;21.94;91.51;100400.63;5377282;33;33663;-56
2023/06/08 09:51:18;;;;;;;20.48;17.37;;;;;;;22.00;87.25;100398.41;5380211;33;33463;-55
2023/06/08 09:54:21;;;;;;;18.25;16.25;;;;;;;21.98;88.17;100397.97;5373340;33;33737;-55
2023/06/08 09:57:27;;;;;;;21.25;16.98;;;;;;;21.96;92.46;100401.06;5379361;33;33728;-55
2023/06/08 10:00:30;;;;;;;16.70;14.80;;;;;;;21.92;88.48;100399.41;5380085;33;33197;-56
2023/06/08 10:03:39;;;;;;;19.23;17.00;;;;;;;21.92;88.80;100407.59;5371467;33;33575;-55
2023/06/08 10:06:44;;;;;;;16.40;14.73;;;;;;;22.01;91.36;100394.53;5373803;33;34330;-55
2023/06/08 10:09:49;;;;;;;18.05;16.25;;;;;;;22.02;88.43;100386.00;5376508;33;33666;-56
2023/06/08 10:12:52;;;;;;;17.73;15.93;;;;;;;21.97;89.67;100380.81;5379417;33;33814;-55
2023/06/08 10:15:55;;;;;;;19.27;15.85;;;;;;;21.89;90.34;100370.91;5379626;33;33629;-57
2023/06/08 10:19:01;;;;;;;18.42;16.40;;;;;;;21.83;90.01;100366.88;5377935;33;33420;-56
2023/06/08 10:22:04;;;;;;;17.90;14.60;;;;;;;21.92;91.84;100361.19;5371290;33;34134;-56
2023/06/08 10:25:09;;;;;;;16.70;14.80;;;;;;;21.93;91.11;100365.53;5379062;33;34349;-57
2023/06/08 10:28:11;;;;;;;16.00;14.20;;;;;;;21.92;89.46;100356.53;5379781;33;33645;-55
2023/06/08 10:31:31;;;;;;;17.50;13.35;;;;;;;21.97;89.37;100360.91;5378937;33;33575;-56
2023/06/08 10:34:40;;;;;;;15.85;13.40;;;;;;;21.96;92.37;100359.34;5377728;33;33614;-56
2023/06/08 10:37:47;;;;;;;18.05;13.13;;;;;;;22.06;90.01;100361.50;5379463;33;34342;-56
2023/06/08 10:40:50;;;;;;;15.88;13.18;;;;;;;22.12;89.82;100362.00;5375627;33;33552;-56
2023/06/08 10:43:58;;;;;;;19.12;14.80;;;;;;;22.08;91.66;100361.94;5370786;33;34471;-58
2023/06/08 10:47:05;;;;;;;18.85;14.20;;;;;;;22.08;93.13;100359.19;5374243;33;33705;-55
2023/06/08 10:50:09;;;;;;;16.33;14.00;;;;;;;22.10;93.01;100353.41;5375352;33;33816;-55
2023/06/08 10:53:15;;;;;;;17.00;13.88;;;;;;;22.13;93.71;100352.69;5370891;33;33700;-56
2023/06/08 10:56:17;;;;;;;16.33;14.00;;;;;;;22.16;94.33;100347.31;5376199;33;33881;-56
2023/06/08 10:59:37;;;;;;;16.05;14.35;;;;;;;22.26;92.06;100335.81;5374587;33;34267;-56
2023/06/08 11:02:41;;;;;;;17.50;14.57;;;;;;;22.18;91.65;100331.34;5363358;33;33240;-56
2023/06/08 11:05:48;;;;;;;18.20;14.52;;;;;;;22.16;93.39;100321.97;5371759;33;33571;-57
2023/06/08 11:08:50;;;;;;;15.90;14.27;;;;;;;22.18;93.03;100334.09;5370025;33;33457;-56
2023/06/08 11:11:53;;;;;;;16.75;14.18;;;;;;;22.21;92.71;100333.38;5368235;33;33761;-56
2023/06/08 11:14:55;;;;;;;20.58;16.10;;;;;;;22.22;93.74;100326.78;5361879;33;34206;-56
2023/06/08 11:17:58;;;;;;;22.48;17.25;;;;;;;22.21;91.94;100324.38;5371994;33;34088;-57
2023/06/08 11:21:02;;;;;;;19.87;16.40;;;;;;;22.23;93.36;100327.56;5371713;33;33740;-56
2023/06/08 11:24:05;;;;;;;20.10;16.73;;;;;;;22.32;93.87;100328.13;5369719;33;35296;-56
2023/06/08 11:27:07;;;;;;;18.30;15.27;;;;;;;22.43;89.55;100326.38;5365145;33;33506;-56
2023/06/08 11:30:17;;;;;;;15.40;12.82;;;;;;;22.42;91.62;100330.28;5372332;33;33607;-56
2023/06/08 11:33:19;;;;;;;13.50;11.10;;;;;;;22.42;87.82;100334.97;5373226;33;33705;-56
2023/06/08 11:36:22;;;;;;;13.27;11.63;;;;;;;22.37;83.99;100332.50;5378982;33;33727;-56
2023/06/08 11:39:24;;;;;;;19.58;14.75;;;;;;;22.41;85.98;100331.41;5377828;33;34264;-56
2023/06/08 11:42:27;;;;;;;19.65;14.65;;;;;;;22.47;88.42;100332.69;5377730;33;34431;-56
2023/06/08 11:45:29;;;;;;;17.33;14.70;;;;;;;22.51;89.55;100330.81;5378708;33;34352;-56
2023/06/08 11:48:31;;;;;;;15.98;14.25;;;;;;;22.57;89.57;100320.38;5379449;33;33944;-56
2023/06/08 11:51:42;;;;;;;14.15;11.98;;;;;;;22.58;89.94;100321.19;5377845;33;33777;-56
2023/06/08 11:54:45;;;;;;;16.98;12.95;;;;;;;22.66;89.27;100307.28;5378549;33;33938;-56
2023/06/08 11:57:56;;;;;;;16.45;12.45;;;;;;;22.54;85.62;100307.44;5378571;33;33880;-56
2023/06/08 12:01:07;;;;;;;13.30;11.35;;;;;;;22.56;84.60;100296.97;5375135;33;34429;-56
2023/06/08 12:04:13;;;;;;;13.95;11.80;;;;;;;22.62;85.26;100294.72;5378967;33;33737;-56
2023/06/08 12:07:16;;;;;;;13.13;10.70;;;;;;;22.70;85.30;100286.28;5365958;33;33754;-56
2023/06/08 12:10:18;;;;;;;12.82;10.07;;;;;;;22.74;82.91;100287.13;5361111;33;33519;-56
2023/06/08 12:13:22;;;;;;;12.37;10.48;;;;;;;22.75;84.35;100282.47;5361016;33;33741;-56
2023/06/08 12:16:25;;;;;;;14.43;10.77;;;;;;;22.82;82.82;100282.59;5362093;33;33658;-56
2023/06/08 12:19:29;;;;;;;12.68;10.32;;;;;;;22.90;80.65;100275.28;5378214;33;33805;-56
2023/06/08 12:22:31;;;;;;;13.65;10.52;;;;;;;23.00;80.69;100273.91;5370353;33;32434;-56
2023/06/08 12:25:35;;;;;;;11.63;9.10;;;;;;;23.06;79.12;100275.97;5369992;33;33745;-56
2023/06/08 12:28:38;;;;;;;9.93;8.77;;;;;;;23.24;74.68;100269.97;5380947;33;33731;-56
2023/06/08 12:31:40;;;;;;;12.85;10.90;;;;;;;23.28;76.96;100273.53;5377478;33;33426;-56
2023/06/08 12:34:44;;;;;;;16.70;11.68;;;;;;;23.29;78.53;100270.44;5379441;33;34380;-57
2023/06/08 12:37:48;;;;;;;12.75;10.80;;;;;;;23.25;80.53;100272.34;5376526;33;32019;-57
2023/06/08 12:40:52;;;;;;;16.67;11.55;;;;;;;23.18;81.66;100275.75;5381003;33;33593;-56
2023/06/08 12:43:54;;;;;;;18.55;12.52;;;;;;;23.11;80.27;100277.59;5380751;33;33726;-56
2023/06/08 12:46:57;;;;;;;15.10;11.80;;;;;;;23.03;80.57;100281.37;5379609;33;33594;-56
2023/06/08 12:49:59;;;;;;;17.73;12.10;;;;;;;23.01;81.40;100267.28;5380553;33;33859;-56
2023/06/08 12:53:02;;;;;;;12.88;11.30;;;;;;;23.06;82.29;100273.22;5380422;33;34488;-57
2023/06/08 12:56:04;;;;;;;12.90;11.32;;;;;;;23.01;80.49;100265.31;5380720;33;33636;-56
2023/06/08 12:59:06;;;;;;;11.68;10.25;;;;;;;22.87;80.00;100262.34;5373637;33;33942;-56
2023/06/08 13:02:10;;;;;;;13.62;9.75;;;;;;;22.95;80.89;100255.88;5362361;33;33758;-57
2023/06/08 13:05:12;;;;;;;12.05;8.65;;;;;;;22.94;82.49;100255.06;5375701;33;33616;-57
2023/06/08 13:08:15;;;;;;;9.80;7.87;;;;;;;22.94;76.58;100257.81;5380624;33;33344;-57
2023/06/08 13:11:17;;;;;;;10.07;7.87;;;;;;;22.93;76.88;100269.12;5375193;33;33580;-56
2023/06/08 13:14:19;;;;;;;9.43;7.60;;;;;;;23.11;75.05;100263.91;5377627;33;33889;-56
2023/06/08 13:17:24;;;;;;;11.57;7.10;;;;;;;23.15;76.34;100270.25;5379520;33;33600;-56
2023/06/08 13:20:26;;;;;;;8.10;6.97;;;;;;;23.13;75.75;100272.53;5380180;33;33727;-56
2023/06/08 13:23:30;;;;;;;9.32;7.80;;;;;;;23.17;74.62;100273.38;5379387;33;34330;-57
2023/06/08 13:26:33;;;;;;;9.80;7.62;;;;;;;23.16;75.26;100269.06;5362145;33;33745;-56
2023/06/08 13:29:38;;;;;;;10.07;8.68;;;;;;;23.18;74.88;100272.25;5362040;33;33648;-56
2023/06/08 13:32:40;;;;;;;8.73;7.10;;;;;;;23.13;73.07;100272.53;5362488;33;33720;-56
2023/06/08 13:35:44;;;;;;;9.25;8.27;;;;;;;23.16;73.97;100274.53;5362095;33;33578;-56
2023/06/08 13:38:47;;;;;;;12.80;7.87;;;;;;;23.17;74.59;100271.44;5361633;33;34205;-56
2023/06/08 13:41:50;;;;;;;10.23;7.32;;;;;;;23.19;74.64;100269.12;5365106;33;33816;-57
2023/06/08 13:44:54;;;;;;;13.40;8.05;;;;;;;23.23;74.78;100260.19;5377741;33;33195;-56
2023/06/08 13:47:56;;;;;;;12.48;7.53;;;;;;;23.27;75.93;100253.59;5375183;33;34490;-56
2023/06/08 13:50:59;;;;;;;17.62;7.82;;;;;;;23.32;73.03;100258.78;5379928;33;34551;-56
2023/06/08 13:54:02;;;;;;;9.68;8.65;;;;;;;23.39;76.82;100249.88;5379378;33;34096;-56
2023/06/08 13:57:05;;;;;;;16.17;7.62;;;;;;;23.31;70.88;100254.47;5377995;33;33710;-56
2023/06/08 14:00:09;;;;;;;10.93;7.75;;;;;;;23.31;74.87;100259.94;5379318;33;33815;-57
2023/06/08 14:03:13;;;;;;;11.18;8.50;;;;;;;23.31;73.67;100243.53;5380283;33;34414;-56
2023/06/08 14:06:16;;;;;;;13.68;8.50;;;;;;;23.32;72.53;100242.34;5379921;33;34526;-56
2023/06/08 14:09:18;;;;;;;14.50;8.10;;;;;;;23.36;74.22;100236.94;5376135;33;34359;-56
2023/06/08 14:12:20;;;;;;;14.48;8.18;;;;;;;23.36;73.46;100229.50;5373435;33;33724;-56
2023/06/08 14:15:22;;;;;;;10.25;7.62;;;;;;;23.41;74.72;100225.66;5370630;33;33339;-56
2023/06/08 14:18:25;;;;;;;10.15;8.65;;;;;;;23.42;72.67;100213.56;5376101;33;34352;-56
2023/06/08 14:21:29;;;;;;;10.90;9.23;;;;;;;23.48;74.14;100219.47;5375336;33;33774;-56
2023/06/08 14:24:31;;;;;;;11.65;8.77;;;;;;;23.49;72.17;100205.44;5380232;33;33254;-56
2023/06/08 14:27:34;;;;;;;10.05;8.50;;;;;;;23.55;73.21;100198.50;5380137;33;33735;-56
2023/06/08 14:30:36;;;;;;;11.05;8.35;;;;;;;23.68;72.66;100199.06;5379996;33;33670;-56
2023/06/08 14:33:39;;;;;;;15.30;8.63;;;;;;;23.76;71.39;100195.25;5380305;33;34460;-56
2023/06/08 14:36:41;;;;;;;10.30;8.40;;;;;;;23.78;70.45;100203.88;5379800;33;33714;-56
2023/06/08 14:39:44;;;;;;;11.95;9.60;;;;;;;23.76;71.18;100197.97;5380208;33;34050;-56
2023/06/08 14:42:49;;;;;;;11.93;8.88;;;;;;;23.68;69.66;100199.84;5380397;33;34336;-55
2023/06/08 14:45:52;;;;;;;8.85;7.95;;;;;;;23.66;69.54;100201.34;5380491;33;34390;-55
2023/06/08 14:48:54;;;;;;;13.02;9.52;;;;;;;23.66;71.26;100204.09;5379217;33;33609;-55
2023/06/08 14:51:57;;;;;;;13.52;8.60;;;;;;;23.68;70.10;100205.34;5379889;33;33793;-56
2023/06/08 14:54:59;;;;;;;12.27;8.68;;;;;;;23.61;70.86;100204.44;5380537;33;33660;-56
2023/06/08 14:58:02;;;;;;;13.70;8.68;;;;;;;23.60;71.65;100206.37;5379484;33;33795;-56
2023/06/08 15:01:04;;;;;;;9.48;8.43;;;;;;;23.55;73.77;100194.97;5380596;33;33649;-55
2023/06/08 15:04:09;;;;;;;14.73;8.35;;;;;;;23.56;69.43;100186.37;5380446;33;33763;-55
2023/06/08 15:07:12;;;;;;;9.50;8.45;;;;;;;23.51;68.87;100186.72;5380433;33;34233;-55
2023/06/08 15:10:14;;;;;;;9.50;7.97;;;;;;;23.54;70.27;100179.69;5380355;33;34378;-55
2023/06/08 15:13:17;;;;;;;12.40;8.30;;;;;;;23.52;71.35;100176.56;5380274;33;33727;-55
2023/06/08 15:16:19;;;;;;;8.25;7.45;;;;;;;23.54;72.05;100171.50;5380398;33;34375;-56
2023/06/08 15:19:21;;;;;;;9.75;7.45;;;;;;;23.49;75.81;100169.09;5380377;33;33648;-55
2023/06/08 15:22:23;;;;;;;7.70;6.90;;;;;;;23.47;77.23;100166.72;5379876;33;33927;-55
2023/06/08 15:25:26;;;;;;;7.20;6.10;;;;;;;23.49;75.77;100161.69;5380429;33;33664;-55
2023/06/08 15:28:28;;;;;;;11.25;6.30;;;;;;;23.46;76.74;100156.94;5379866;33;33219;-55
2023/06/08 15:31:31;;;;;;;6.95;5.95;;;;;;;23.44;78.07;100170.19;5379978;33;34492;-54
2023/06/08 15:34:33;;;;;;;7.95;6.30;;;;;;;23.40;75.55;100178.38;5380426;33;33731;-55
2023/06/08 15:37:36;;;;;;;7.65;5.85;;;;;;;23.44;73.56;100165.53;5380082;33;33960;-56
2023/06/08 15:40:38;;;;;;;6.45;5.57;;;;;;;23.36;76.91;100169.34;5380086;33;33618;-55
2023/06/08 15:43:41;;;;;;;8.35;6.50;;;;;;;23.37;75.78;100170.13;5380163;33;34435;-55
2023/06/08 15:46:43;;;;;;;7.10;6.30;;;;;;;23.33;76.70;100174.75;5380036;33;33863;-56
